EGCN/DSA METAR and TAF weather

Enter ICAO airport designator
Station Type Date Time Source
EGCN METAR 2018/01/24 07:20 UTC NOAA

EGCN 240720Z 20029KT 9999 SCT023 BKN028 14/10 Q0995


Station Type Date Time Source
EGCN Decoded METAR 2018/01/24 07:20 UTC NOAA

Station name not available
Jan 24, 2018 - 02:20 AM EST / 2018.01.24 0720 UTC
Wind: from the SSW (200 degrees) at 33 MPH (29 KT):0
Visibility: greater than 7 mile(s):0
Sky conditions: mostly cloudy
Temperature: 57 F (14 C)
Dew Point: 50 F (10 C)
Relative Humidity: 76%
Pressure (altimeter): 29.38 in. Hg (0995 hPa)
ob: EGCN 240720Z 20029KT 9999 SCT023 BKN028 14/10 Q0995
cycle: 7

Station Type Date Time Source
EGCN TAF 2018/01/24 06:00 UTC NOAA

TAF EGCN 240452Z 2406/2506 20020KT 9999 SCT025
TEMPO 2406/2411 20023G33KT 4000 RADZ BKN008 PROB40
TEMPO 2406/2409 22033G43KT +RA PROB30
TEMPO 2411/2418 6000 SHRA


Example: see airport list